createdAt,value
2022-11-04T00:01:26.750Z,8.57
2022-11-04T00:03:53.738Z,8.60
2022-11-04T00:06:20.208Z,8.60
2022-11-04T00:08:55.493Z,8.62
2022-11-04T00:11:40.721Z,8.62
2022-11-04T00:14:08.333Z,8.64
2022-11-04T00:16:53.713Z,8.64
2022-11-04T00:19:20.103Z,8.66
2022-11-04T00:22:05.111Z,8.68
2022-11-04T00:24:43.210Z,8.66
2022-11-04T00:27:29.749Z,8.70
2022-11-04T00:29:56.160Z,8.73
2022-11-04T00:32:41.133Z,8.71
2022-11-04T00:35:08.760Z,8.76
2022-11-04T00:37:43.269Z,8.74
2022-11-04T00:40:13.062Z,8.77
2022-11-04T00:42:39.857Z,8.76
2022-11-04T00:45:07.078Z,8.79
2022-11-04T00:47:33.421Z,8.79
2022-11-04T00:49:59.723Z,8.80
2022-11-04T00:52:26.012Z,8.83
2022-11-04T00:54:52.329Z,8.83
2022-11-04T00:57:18.662Z,8.82
2022-11-04T00:59:45.658Z,8.90
2022-11-04T01:02:12.988Z,8.90
2022-11-04T01:04:39.460Z,8.89
2022-11-04T01:07:05.867Z,8.92
2022-11-04T01:09:32.193Z,8.99
2022-11-04T01:11:58.474Z,8.96
2022-11-04T01:14:24.795Z,9.03
2022-11-04T01:16:51.209Z,8.99
2022-11-04T01:19:17.890Z,9.05
2022-11-04T01:21:44.209Z,9.09
2022-11-04T01:24:10.507Z,9.12
2022-11-04T01:26:37.039Z,9.12
2022-11-04T01:29:03.368Z,9.15
2022-11-04T01:31:31.263Z,9.18
2022-11-04T01:33:58.419Z,9.20
2022-11-04T01:36:26.260Z,9.26
2022-11-04T01:38:54.846Z,9.35
2022-11-04T01:41:27.568Z,9.35
2022-11-04T01:44:24.461Z,9.36
2022-11-04T01:46:53.873Z,9.34
2022-11-04T01:49:28.915Z,9.42
2022-11-04T01:52:02.753Z,9.43
2022-11-04T01:54:29.898Z,9.42
2022-11-04T01:56:57.920Z,9.48
2022-11-04T01:59:35.033Z,9.48
2022-11-04T02:02:01.946Z,9.47
2022-11-04T02:04:30.082Z,9.49
2022-11-04T02:06:59.370Z,9.48
2022-11-04T02:09:29.765Z,9.48
2022-11-04T02:12:14.744Z,9.49
2022-11-04T02:14:41.625Z,9.48
2022-11-04T02:17:20.134Z,9.54
2022-11-04T02:19:55.299Z,9.49
2022-11-04T02:22:47.806Z,9.52
2022-11-04T02:25:32.389Z,9.51
2022-11-04T02:28:17.086Z,9.51
2022-11-04T02:30:57.916Z,9.54
2022-11-04T02:33:37.026Z,9.47
2022-11-04T02:36:10.286Z,9.50
2022-11-04T02:38:55.323Z,9.52
2022-11-04T02:41:33.653Z,9.51
2022-11-04T02:44:16.213Z,9.50
2022-11-04T02:46:52.104Z,9.51
2022-11-04T02:49:39.669Z,9.50
2022-11-04T02:52:09.622Z,9.50
2022-11-04T02:54:46.360Z,9.53
2022-11-04T02:57:19.042Z,9.54
2022-11-04T02:59:49.559Z,9.54
2022-11-04T03:02:26.940Z,9.56
2022-11-04T03:04:55.775Z,9.52
2022-11-04T03:07:27.231Z,9.50
2022-11-04T03:09:59.739Z,9.58
2022-11-04T03:12:32.437Z,9.55
2022-11-04T03:15:10.277Z,9.59
2022-11-04T03:17:47.248Z,9.62
2022-11-04T03:20:21.033Z,9.61
2022-11-04T03:22:47.577Z,9.59
2022-11-04T03:25:14.226Z,9.64
2022-11-04T03:28:00.282Z,9.59
2022-11-04T03:30:37.280Z,9.63
2022-11-04T03:33:25.088Z,9.63
2022-11-04T03:35:51.413Z,9.65
2022-11-04T03:38:17.868Z,9.65
2022-11-04T03:40:44.265Z,9.68
2022-11-04T03:43:25.570Z,9.67
2022-11-04T03:45:51.934Z,9.62
2022-11-04T03:48:18.753Z,9.64
2022-11-04T03:50:50.819Z,9.67
2022-11-04T03:53:21.631Z,9.68
2022-11-04T03:55:53.887Z,9.66
2022-11-04T03:58:50.797Z,9.64
2022-11-04T04:01:30.188Z,9.65
2022-11-04T04:04:06.209Z,9.64
2022-11-04T04:06:36.635Z,9.64
2022-11-04T04:09:18.837Z,9.58
2022-11-04T04:12:06.538Z,9.59
2022-11-04T04:14:41.219Z,9.56
2022-11-04T04:17:16.266Z,9.60
2022-11-04T04:19:48.388Z,9.59
2022-11-04T04:22:20.079Z,9.62
2022-11-04T04:25:07.452Z,9.69
2022-11-04T04:27:35.082Z,9.65
2022-11-04T04:30:09.114Z,9.67
2022-11-04T04:32:41.789Z,9.65
2022-11-04T04:35:28.320Z,9.64
2022-11-04T04:38:18.135Z,9.58
2022-11-04T04:41:10.401Z,9.61
2022-11-04T04:44:00.064Z,9.62
2022-11-04T04:46:28.951Z,9.63
2022-11-04T04:48:55.437Z,9.55
2022-11-04T04:51:22.681Z,9.58
2022-11-04T04:53:48.979Z,9.57
2022-11-04T04:56:15.256Z,9.56
2022-11-04T04:58:41.548Z,9.56
2022-11-04T05:01:08.975Z,9.54
2022-11-04T05:03:35.393Z,9.50
2022-11-04T05:06:01.718Z,9.55
2022-11-04T05:08:28.013Z,9.57
2022-11-04T05:10:54.323Z,9.69
2022-11-04T05:13:26.495Z,9.65
2022-11-04T05:15:53.362Z,9.61
2022-11-04T05:18:20.381Z,9.58
2022-11-04T05:20:46.671Z,9.58
2022-11-04T05:23:13.537Z,9.53
2022-11-04T05:25:41.835Z,9.46
2022-11-04T05:28:09.161Z,9.44
2022-11-04T05:30:36.317Z,9.51
2022-11-04T05:33:04.989Z,9.47
2022-11-04T05:35:32.416Z,9.47
2022-11-04T05:37:58.781Z,9.46
2022-11-04T05:40:25.334Z,9.44
2022-11-04T05:42:51.701Z,9.47
2022-11-04T05:45:18.231Z,9.58
2022-11-04T05:47:44.529Z,9.51
2022-11-04T05:50:10.813Z,9.59
2022-11-04T05:52:37.149Z,9.51
2022-11-04T05:55:03.588Z,9.51
2022-11-04T05:57:29.950Z,9.55
2022-11-04T05:59:56.246Z,9.53
2022-11-04T06:02:22.706Z,9.49
2022-11-04T06:04:49.121Z,9.51
2022-11-04T06:07:15.444Z,9.46
2022-11-04T06:09:41.802Z,9.47
2022-11-04T06:12:10.412Z,9.46
2022-11-04T06:14:36.993Z,9.39
2022-11-04T06:17:04.032Z,9.44
2022-11-04T06:19:30.348Z,9.44
2022-11-04T06:21:56.746Z,9.44
2022-11-04T06:24:23.041Z,9.38
2022-11-04T06:26:49.361Z,9.36
2022-11-04T06:29:15.700Z,9.44
2022-11-04T06:31:42.059Z,9.41
2022-11-04T06:34:08.478Z,9.42
2022-11-04T06:36:34.759Z,9.42
2022-11-04T06:39:04.667Z,9.43
2022-11-04T06:41:31.837Z,9.38
2022-11-04T06:43:58.173Z,9.38
2022-11-04T06:46:27.215Z,9.35
2022-11-04T06:48:54.879Z,9.47
2022-11-04T06:51:21.271Z,9.52
2022-11-04T06:53:47.694Z,9.52
2022-11-04T06:56:14.389Z,9.44
2022-11-04T06:58:41.068Z,9.50
2022-11-04T07:01:12.778Z,9.43
2022-11-04T07:03:41.054Z,9.39
2022-11-04T07:06:08.680Z,9.35
2022-11-04T07:08:35.408Z,9.29
2022-11-04T07:11:02.686Z,9.31
2022-11-04T07:13:29.001Z,9.32
2022-11-04T07:15:55.361Z,9.34
2022-11-04T07:18:21.717Z,9.34
2022-11-04T07:20:48.198Z,9.28
2022-11-04T07:23:14.749Z,9.30
2022-11-04T07:25:41.077Z,9.25
2022-11-04T07:28:07.737Z,9.29
2022-11-04T07:30:34.282Z,9.36
2022-11-04T07:33:00.562Z,9.51
2022-11-04T07:35:26.853Z,9.31
2022-11-04T07:37:55.285Z,9.27
2022-11-04T07:40:21.614Z,9.24
2022-11-04T07:42:47.927Z,9.23
2022-11-04T07:45:14.251Z,9.28
2022-11-04T07:47:40.578Z,9.24
2022-11-04T07:50:10.956Z,9.19
2022-11-04T07:52:38.099Z,9.13
2022-11-04T07:55:04.797Z,9.11
2022-11-04T07:57:31.226Z,9.10
2022-11-04T07:59:57.508Z,9.19
2022-11-04T08:02:26.742Z,9.12
2022-11-04T08:04:55.020Z,9.19
2022-11-04T08:07:21.613Z,9.14
2022-11-04T08:09:47.978Z,9.10
2022-11-04T08:12:14.513Z,9.02
2022-11-04T08:14:40.785Z,9.14
2022-11-04T08:17:07.116Z,9.12
2022-11-04T08:19:33.445Z,9.03
2022-11-04T08:21:59.873Z,8.99
2022-11-04T08:24:26.270Z,9.05
2022-11-04T08:26:52.634Z,9.20
2022-11-04T08:29:19.232Z,9.19
2022-11-04T08:31:45.617Z,9.29
2022-11-04T08:34:11.938Z,9.15
2022-11-04T08:36:40.775Z,9.28
2022-11-04T08:39:10.897Z,9.34
2022-11-04T08:41:40.800Z,9.31
2022-11-04T08:44:08.754Z,9.38
2022-11-04T08:46:38.333Z,9.43
2022-11-04T08:49:10.030Z,9.37
2022-11-04T08:51:41.903Z,9.31
2022-11-04T08:54:08.288Z,9.38
2022-11-04T08:56:37.305Z,9.31
2022-11-04T08:59:04.973Z,9.42
2022-11-04T09:01:35.764Z,9.42
2022-11-04T09:04:03.041Z,9.42
2022-11-04T09:06:34.079Z,9.29
2022-11-04T09:09:04.610Z,9.43
2022-11-04T09:11:39.136Z,9.38
2022-11-04T09:14:06.450Z,9.36
2022-11-04T09:16:34.752Z,9.40
2022-11-04T09:19:01.837Z,9.43
2022-11-04T09:21:28.910Z,9.48
2022-11-04T09:23:56.098Z,9.51
2022-11-04T09:26:24.283Z,9.55
2022-11-04T09:28:57.727Z,9.66
2022-11-04T09:31:26.087Z,9.80
2022-11-04T09:33:54.648Z,9.80
2022-11-04T09:36:21.772Z,9.84
2022-11-04T09:38:48.143Z,9.76
2022-11-04T09:41:23.609Z,9.85
2022-11-04T09:44:14.296Z,10.04
2022-11-04T09:46:41.133Z,9.81
2022-11-04T09:49:12.536Z,10.00
2022-11-04T09:51:53.832Z,10.07
2022-11-04T09:54:32.961Z,10.14
2022-11-04T09:57:01.570Z,9.94
2022-11-04T09:59:31.942Z,9.90
2022-11-04T10:01:58.271Z,9.67
2022-11-04T10:04:48.281Z,9.80
2022-11-04T10:07:42.382Z,9.70
2022-11-04T10:10:23.196Z,9.68
2022-11-04T10:13:04.106Z,9.60
2022-11-04T10:16:02.884Z,9.73
2022-11-04T10:19:02.787Z,9.63
2022-11-04T10:22:10.579Z,9.61
2022-11-04T10:24:55.098Z,9.61
2022-11-04T10:27:28.673Z,9.72
2022-11-04T10:30:20.497Z,9.68
2022-11-04T10:33:00.269Z,9.79
2022-11-04T10:35:49.611Z,9.76
2022-11-04T10:38:34.428Z,9.48
2022-11-04T10:41:06.963Z,9.55
2022-11-04T10:43:38.748Z,9.73
2022-11-04T10:46:26.148Z,9.60
2022-11-04T10:49:05.198Z,9.83
2022-11-04T10:51:31.617Z,9.96
2022-11-04T10:54:00.989Z,9.94
2022-11-04T10:56:37.499Z,10.29
2022-11-04T10:59:23.263Z,10.35
2022-11-04T11:01:52.907Z,10.40
2022-11-04T11:04:28.654Z,10.42
2022-11-04T11:06:57.038Z,10.61
2022-11-04T11:09:29.671Z,10.56
2022-11-04T11:12:06.969Z,10.69
2022-11-04T11:14:42.090Z,10.46
2022-11-04T11:17:14.223Z,10.47
2022-11-04T11:19:59.220Z,10.67
2022-11-04T11:22:34.609Z,10.50
2022-11-04T11:25:13.045Z,10.72
2022-11-04T11:27:40.322Z,10.74
2022-11-04T11:30:19.259Z,10.82
2022-11-04T11:32:46.504Z,10.82
2022-11-04T11:35:17.722Z,10.95
2022-11-04T11:37:47.494Z,11.06
2022-11-04T11:40:28.559Z,10.91
2022-11-04T11:42:56.072Z,10.93
2022-11-04T11:45:23.856Z,10.91
2022-11-04T11:47:54.773Z,10.80
2022-11-04T11:50:34.936Z,10.94
2022-11-04T11:53:15.121Z,11.12
2022-11-04T11:55:58.822Z,11.19
2022-11-04T12:01:32.091Z,11.13
2022-11-04T12:10:02.165Z,11.16
2022-11-04T12:12:48.960Z,11.04
2022-11-04T12:15:33.574Z,11.18
2022-11-04T12:18:24.807Z,11.26
2022-11-04T12:21:06.647Z,11.43
2022-11-04T12:24:03.864Z,11.09
2022-11-04T12:27:00.362Z,11.22
2022-11-04T12:29:49.789Z,11.31
2022-11-04T12:32:41.009Z,11.03
2022-11-04T12:35:13.029Z,11.24
2022-11-04T12:37:46.771Z,11.20
2022-11-04T12:40:24.309Z,11.24
2022-11-04T12:43:04.353Z,10.84
2022-11-04T12:45:59.104Z,10.75
2022-11-04T12:48:56.869Z,10.94
2022-11-04T12:51:50.465Z,10.89
2022-11-04T12:54:23.580Z,10.89
2022-11-04T12:57:12.753Z,10.85
2022-11-04T13:00:02.531Z,10.84
2022-11-04T13:02:35.552Z,10.63
2022-11-04T13:05:25.197Z,10.72
2022-11-04T13:08:02.886Z,10.74
2022-11-04T13:10:52.900Z,10.88
2022-11-04T13:13:26.554Z,10.77
2022-11-04T13:15:57.994Z,10.79
2022-11-04T13:18:28.732Z,10.80
2022-11-04T13:21:02.490Z,10.98
2022-11-04T13:23:39.045Z,10.92
2022-11-04T13:26:11.047Z,11.03
2022-11-04T13:28:40.429Z,11.06
2022-11-04T13:31:48.305Z,10.75
2022-11-04T13:34:24.845Z,10.66
2022-11-04T13:36:56.993Z,10.66
2022-11-04T13:39:38.914Z,10.91
2022-11-04T13:43:18.051Z,10.84
2022-11-04T13:45:55.657Z,10.95
2022-11-04T13:48:26.472Z,10.98
2022-11-04T13:51:12.181Z,10.87
2022-11-04T13:53:46.951Z,10.64
2022-11-04T13:56:35.207Z,10.77
2022-11-04T13:59:19.605Z,10.78
2022-11-04T14:01:46.642Z,10.60
2022-11-04T14:04:12.934Z,10.67
2022-11-04T14:07:06.181Z,10.55
2022-11-04T14:09:35.138Z,10.53
2022-11-04T14:12:10.813Z,10.53
2022-11-04T14:14:42.319Z,10.48
2022-11-04T14:17:33.661Z,10.47
2022-11-04T14:20:11.507Z,10.45
2022-11-04T14:22:43.765Z,10.51
2022-11-04T14:25:36.854Z,10.43
2022-11-04T14:28:27.870Z,10.33
2022-11-04T14:30:58.724Z,10.43
2022-11-04T14:33:53.616Z,10.46
2022-11-04T14:36:20.425Z,10.44
2022-11-04T14:39:10.386Z,10.43
2022-11-04T14:41:39.683Z,10.41
2022-11-04T14:44:23.614Z,10.47
2022-11-04T14:46:57.454Z,10.43
2022-11-04T14:49:42.861Z,10.37
2022-11-04T14:52:17.493Z,10.25
2022-11-04T14:54:43.950Z,10.31
2022-11-04T14:57:20.008Z,10.33
2022-11-04T14:59:47.033Z,10.21
2022-11-04T15:02:18.332Z,10.29
2022-11-04T15:04:59.325Z,10.36
2022-11-04T15:07:36.208Z,10.28
2022-11-04T15:10:21.774Z,10.24
2022-11-04T15:12:51.819Z,10.24
2022-11-04T15:15:28.928Z,10.17
2022-11-04T15:18:08.502Z,10.23
2022-11-04T15:20:59.190Z,10.06
2022-11-04T15:23:31.425Z,10.11
2022-11-04T15:25:59.232Z,10.11
2022-11-04T15:28:34.380Z,10.09
2022-11-04T15:31:11.615Z,10.03
2022-11-04T15:33:46.685Z,10.07
2022-11-04T15:36:25.257Z,10.03
2022-11-04T15:38:57.881Z,10.11
2022-11-04T15:41:44.802Z,10.08
2022-11-04T15:44:20.718Z,10.09
2022-11-04T15:46:49.430Z,10.08
2022-11-04T15:49:36.015Z,10.02
2022-11-04T15:52:08.187Z,10.02
2022-11-04T15:54:44.157Z,10.01
2022-11-04T15:57:38.790Z,9.96
2022-11-04T16:00:08.776Z,9.94
2022-11-04T16:02:39.250Z,9.86
2022-11-04T16:05:11.727Z,9.80
2022-11-04T16:07:50.072Z,9.79
2022-11-04T16:10:37.609Z,9.75
2022-11-04T16:13:20.111Z,9.61
2022-11-04T16:15:58.006Z,9.52
2022-11-04T16:18:42.709Z,9.57
2022-11-04T16:21:14.066Z,9.51
2022-11-04T16:23:47.425Z,9.52
2022-11-04T16:26:14.214Z,9.43
2022-11-04T16:28:41.474Z,9.33
2022-11-04T16:31:28.259Z,9.48
2022-11-04T16:33:55.227Z,9.47
2022-11-04T16:36:24.490Z,9.49
2022-11-04T16:38:57.471Z,9.43
2022-11-04T16:41:26.095Z,9.36
2022-11-04T16:43:53.410Z,9.44
2022-11-04T16:46:20.262Z,9.34
2022-11-04T16:48:46.558Z,9.22
2022-11-04T16:51:18.830Z,9.26
2022-11-04T16:53:51.704Z,9.23
2022-11-04T16:56:21.159Z,9.19
2022-11-04T16:58:47.460Z,9.20
2022-11-04T17:01:15.267Z,9.25
2022-11-04T17:03:45.627Z,9.32
2022-11-04T17:06:13.430Z,9.30
2022-11-04T17:08:41.514Z,9.22
2022-11-04T17:11:08.652Z,9.23
2022-11-04T17:13:36.538Z,9.19
2022-11-04T17:16:04.528Z,9.14
2022-11-04T17:18:32.247Z,9.11
2022-11-04T17:21:00.172Z,9.07
2022-11-04T17:23:26.795Z,9.03
2022-11-04T17:25:53.222Z,9.00
2022-11-04T17:28:19.504Z,8.96
2022-11-04T17:30:45.987Z,8.88
2022-11-04T17:33:18.157Z,8.82
2022-11-04T17:35:48.285Z,8.78
2022-11-04T17:38:15.542Z,8.67
2022-11-04T17:41:00.335Z,8.60
2022-11-04T17:43:45.248Z,8.54
2022-11-04T17:46:31.410Z,8.49
2022-11-04T17:48:58.158Z,8.46
2022-11-04T17:51:24.745Z,8.35
2022-11-04T17:53:51.073Z,8.32
2022-11-04T17:56:23.086Z,8.25
2022-11-04T17:58:49.793Z,8.25
2022-11-04T18:01:20.285Z,8.22
2022-11-04T18:03:46.875Z,8.22
2022-11-04T18:06:13.452Z,8.11
2022-11-04T18:08:40.315Z,8.15
2022-11-04T18:11:10.112Z,8.11
2022-11-04T18:13:37.067Z,8.03
2022-11-04T18:16:11.137Z,8.00
2022-11-04T18:18:37.517Z,7.95
2022-11-04T18:21:05.170Z,7.93
2022-11-04T18:23:31.625Z,8.01
2022-11-04T18:25:58.072Z,7.95
2022-11-04T18:28:24.606Z,7.90
2022-11-04T18:30:51.034Z,7.85
2022-11-04T18:33:17.328Z,7.93
2022-11-04T18:35:43.628Z,7.98
2022-11-04T18:38:09.928Z,7.90
2022-11-04T18:40:36.571Z,7.96
2022-11-04T18:43:08.486Z,7.97
2022-11-04T18:45:36.164Z,7.89
2022-11-04T18:48:02.558Z,7.92
2022-11-04T18:50:30.094Z,7.94
2022-11-04T18:52:56.503Z,7.87
2022-11-04T18:55:23.881Z,7.84
2022-11-04T18:57:54.032Z,7.89
2022-11-04T19:00:20.468Z,7.80
2022-11-04T19:02:46.803Z,7.78
2022-11-04T19:05:13.301Z,7.86
2022-11-04T19:07:41.755Z,7.84
2022-11-04T19:10:08.626Z,7.85
2022-11-04T19:12:53.561Z,7.84
2022-11-04T19:15:20.338Z,7.83
2022-11-04T19:17:46.989Z,7.89
2022-11-04T19:20:13.534Z,7.90
2022-11-04T19:22:40.962Z,7.89
2022-11-04T19:25:08.286Z,7.90
2022-11-04T19:27:34.873Z,7.92
2022-11-04T19:30:01.197Z,7.95
2022-11-04T19:32:27.488Z,7.94
2022-11-04T19:34:53.805Z,7.87
2022-11-04T19:37:20.105Z,7.92
2022-11-04T19:39:46.474Z,8.00
2022-11-04T19:42:35.094Z,7.92
2022-11-04T19:45:01.428Z,7.83
2022-11-04T19:47:27.724Z,7.87
2022-11-04T19:49:55.331Z,7.95
2022-11-04T19:52:21.665Z,8.00
2022-11-04T19:54:47.976Z,7.99
2022-11-04T19:57:14.246Z,7.97
2022-11-04T19:59:40.551Z,7.99
2022-11-04T20:02:07.018Z,8.00
2022-11-04T20:04:33.412Z,8.00
2022-11-04T20:06:59.689Z,7.99
2022-11-04T20:09:26.093Z,8.00
2022-11-04T20:12:11.037Z,8.01
2022-11-04T20:14:37.408Z,7.96
2022-11-04T20:17:05.984Z,7.96
2022-11-04T20:19:32.421Z,7.95
2022-11-04T20:21:58.728Z,7.91
2022-11-04T20:24:25.162Z,7.91
2022-11-04T20:26:51.713Z,7.81
2022-11-04T20:29:18.059Z,7.85
2022-11-04T20:31:44.615Z,7.88
2022-11-04T20:34:12.235Z,7.78
2022-11-04T20:36:39.146Z,7.69
2022-11-04T20:39:14.172Z,7.73
2022-11-04T20:41:40.726Z,7.76
2022-11-04T20:44:12.607Z,7.71
2022-11-04T20:46:39.766Z,7.68
2022-11-04T20:49:06.110Z,7.71
2022-11-04T20:51:35.093Z,7.72
2022-11-04T20:54:04.034Z,7.73
2022-11-04T20:56:32.623Z,7.81
2022-11-04T20:59:00.338Z,7.76
2022-11-04T21:01:32.842Z,7.77
2022-11-04T21:04:00.715Z,7.81
2022-11-04T21:06:27.505Z,7.76
2022-11-04T21:08:53.858Z,7.78
2022-11-04T21:11:20.456Z,7.76
2022-11-04T21:13:46.785Z,7.77
2022-11-04T21:16:14.674Z,7.85
2022-11-04T21:18:40.973Z,7.85
2022-11-04T21:21:08.824Z,7.80
2022-11-04T21:23:35.233Z,7.76
2022-11-04T21:26:09.988Z,7.76
2022-11-04T21:28:36.346Z,7.85
2022-11-04T21:31:09.037Z,7.80
2022-11-04T21:33:36.194Z,7.87
2022-11-04T21:36:10.899Z,7.89
2022-11-04T21:38:37.270Z,7.89
2022-11-04T21:41:15.544Z,7.92
2022-11-04T21:43:42.342Z,7.99
2022-11-04T21:46:14.949Z,7.97
2022-11-04T21:48:42.438Z,8.01
2022-11-04T21:51:12.440Z,8.03
2022-11-04T21:53:38.958Z,8.00
2022-11-04T21:56:18.680Z,8.00
2022-11-04T21:58:45.222Z,7.95
2022-11-04T22:01:14.012Z,7.97
2022-11-04T22:03:40.942Z,7.95
2022-11-04T22:06:13.052Z,8.00
2022-11-04T22:08:43.285Z,7.94
2022-11-04T22:11:18.420Z,7.93
2022-11-04T22:13:45.004Z,7.86
2022-11-04T22:16:18.043Z,7.89
2022-11-04T22:18:45.282Z,7.94
2022-11-04T22:21:16.124Z,7.93
2022-11-04T22:23:43.301Z,7.86
2022-11-04T22:26:15.564Z,7.90
2022-11-04T22:28:42.113Z,7.75
2022-11-04T22:31:29.018Z,7.86
2022-11-04T22:33:56.333Z,7.77
2022-11-04T22:36:23.487Z,7.80
2022-11-04T22:38:50.138Z,7.73
2022-11-04T22:41:20.284Z,7.81
2022-11-04T22:43:46.859Z,7.82
2022-11-04T22:46:19.560Z,7.80
2022-11-04T22:48:46.177Z,7.84
2022-11-04T22:51:13.420Z,7.77
2022-11-04T22:53:40.080Z,7.79
2022-11-04T22:56:08.178Z,7.73
2022-11-04T22:58:34.744Z,7.75
2022-11-04T23:01:07.558Z,7.76
2022-11-04T23:03:34.379Z,7.72
2022-11-04T23:06:03.355Z,7.59
2022-11-04T23:08:31.332Z,7.56
2022-11-04T23:11:22.724Z,7.48
2022-11-04T23:14:13.189Z,7.60
2022-11-04T23:17:06.998Z,7.67
2022-11-04T23:19:33.325Z,7.68
2022-11-04T23:22:18.375Z,7.63
2022-11-04T23:25:03.007Z,7.44
2022-11-04T23:27:48.424Z,7.48
2022-11-04T23:30:25.641Z,7.43
2022-11-04T23:32:55.091Z,7.41
2022-11-04T23:35:46.053Z,7.35
2022-11-04T23:38:12.456Z,7.42
2022-11-04T23:40:39.146Z,7.30
2022-11-04T23:43:06.021Z,7.23
2022-11-04T23:45:51.011Z,7.22
2022-11-04T23:48:36.136Z,7.30
2022-11-04T23:51:21.237Z,7.30
2022-11-04T23:54:06.139Z,7.36
2022-11-04T23:56:50.917Z,7.29
2022-11-04T23:59:36.682Z,7.25
